Time;durP1;ratioP1;P1;durP2;ratioP2;P2;SDS_P1;SDS_P2;PMS_P1;PMS_P2;Temp;Humidity;BMP_temperature;BMP_pressure;BME280_temperature;BME280_humidity;BME280_pressure;Samples;Min_cycle;Max_cycle;Signal;HPM_P1;HPM_P2
2021/01/11 00:01:28;;;;;;;;;63.67;50.67;;;;;1.24;71.49;102056.69;4432757;32;8946;-76
2021/01/11 00:04:24;;;;;;;;;71.67;58.00;;;;;1.33;71.28;102070.78;4433316;32;8896;-76
2021/01/11 00:07:19;;;;;;;;;74.33;58.00;;;;;1.31;71.72;102057.41;4433215;32;8992;-76
2021/01/11 00:10:15;;;;;;;;;57.33;52.00;;;;;1.27;71.47;102063.53;4433902;32;8964;-76
2021/01/11 00:13:11;;;;;;;;;73.33;56.33;;;;;1.29;71.32;102059.50;4433972;32;8912;-76
2021/01/11 00:15:37;;;;;;;;;69.00;55.67;;;;;1.21;71.28;102048.13;4435261;32;8899;-76
2021/01/11 00:18:33;;;;;;;;;56.33;48.00;;;;;1.11;71.20;102052.25;4434624;32;8900;-76
2021/01/11 00:21:29;;;;;;;;;65.33;54.67;;;;;1.07;71.32;102051.09;4434909;32;8918;-76
2021/01/11 00:24:25;;;;;;;;;62.00;55.00;;;;;1.01;71.35;102040.28;4434189;32;8931;-75
2021/01/11 00:27:20;;;;;;;;;69.33;58.67;;;;;0.93;71.30;102040.63;4433364;32;8939;-76
2021/01/11 00:30:16;;;;;;;;;66.67;54.33;;;;;0.88;71.60;102037.78;4433022;32;9039;-75
2021/01/11 00:33:12;;;;;;;;;63.67;52.67;;;;;0.88;71.28;102041.31;4435263;32;8920;-76
2021/01/11 00:36:12;;;;;;;;;61.33;53.33;;;;;0.81;71.33;102035.16;4436007;32;8895;-75
2021/01/11 00:38:39;;;;;;;;;66.00;56.33;;;;;0.83;71.54;102027.56;4436815;32;8933;-75
2021/01/11 00:41:34;;;;;;;;;54.33;48.00;;;;;0.78;71.46;102028.28;4436326;32;8946;-76
2021/01/11 00:44:30;;;;;;;;;75.67;55.00;;;;;0.82;72.10;102034.06;4436239;32;9069;-75
2021/01/11 00:47:12;;;;;;;;;66.00;51.00;;;;;0.76;72.14;102041.28;4437165;32;8883;-76
2021/01/11 00:50:08;;;;;;;;;65.33;52.33;;;;;0.75;72.19;102042.34;4434833;32;9536;-76
2021/01/11 00:53:04;;;;;;;;;56.33;51.00;;;;;0.75;72.34;102042.34;4436747;32;8926;-76
2021/01/11 00:55:59;;;;;;;;;60.00;51.67;;;;;0.62;72.06;102048.00;4436414;32;9558;-76
2021/01/11 00:58:27;;;;;;;;;63.00;50.67;;;;;0.64;72.29;102048.59;4434901;32;8898;-76
2021/01/11 01:01:22;;;;;;;;;69.00;52.00;;;;;0.57;72.74;102044.31;4435495;32;8912;-76
2021/01/11 01:04:18;;;;;;;;;74.33;59.33;;;;;0.76;73.12;102035.00;4435717;32;8916;-75
2021/01/11 01:07:14;;;;;;;;;61.67;54.00;;;;;0.83;73.22;102028.38;4434612;32;8912;-76
2021/01/11 01:09:55;;;;;;;;;70.00;57.00;;;;;0.82;73.06;102029.47;4436825;32;8883;-76
2021/01/11 01:12:23;;;;;;;;;68.00;55.00;;;;;0.67;72.87;102020.91;4435670;32;8981;-76
2021/01/11 01:15:18;;;;;;;;;63.00;52.00;;;;;0.71;72.56;102011.22;4435656;32;8942;-76
2021/01/11 01:18:14;;;;;;;;;70.33;57.67;;;;;0.77;72.88;102001.28;4435258;32;8908;-76
2021/01/11 01:20:42;;;;;;;;;77.00;63.67;;;;;0.74;72.46;102009.91;4420650;32;8893;-76
2021/01/11 01:23:37;;;;;;;;;83.67;59.67;;;;;0.65;72.44;102009.41;4419961;32;8979;-76
2021/01/11 01:26:33;;;;;;;;;74.33;63.67;;;;;0.71;72.05;102004.94;4420835;32;8987;-76
2021/01/11 01:29:29;;;;;;;;;76.67;60.00;;;;;0.61;71.89;102012.81;4419746;32;8899;-76
2021/01/11 01:32:24;;;;;;;;;67.00;57.33;;;;;0.64;72.06;102006.94;4423465;32;8960;-76
2021/01/11 01:35:20;;;;;;;;;54.00;47.33;;;;;0.60;71.99;102006.53;4436566;32;9027;-76
2021/01/11 01:38:15;;;;;;;;;63.67;55.00;;;;;0.58;71.55;102016.84;4436816;32;8923;-76
2021/01/11 01:41:11;;;;;;;;;38.67;36.00;;;;;0.47;71.81;102023.91;4436283;32;8949;-74
2021/01/11 01:44:07;;;;;;;;;62.00;53.33;;;;;0.49;72.12;102010.06;4433274;32;8908;-74
2021/01/11 01:46:34;;;;;;;;;68.33;57.00;;;;;0.57;71.68;102036.13;4435148;32;8940;-74
2021/01/11 01:49:30;;;;;;;;;61.67;53.33;;;;;0.54;71.76;102034.72;4435026;32;8997;-74
2021/01/11 01:52:26;;;;;;;;;52.33;48.67;;;;;0.52;71.87;102034.94;4435667;32;8912;-74
2021/01/11 01:55:21;;;;;;;;;63.33;53.33;;;;;0.42;71.99;102036.56;4436035;32;8900;-75
2021/01/11 01:58:18;;;;;;;;;63.67;52.67;;;;;0.40;71.74;102039.50;4431561;32;8880;-75
2021/01/11 02:01:14;;;;;;;;;69.67;55.00;;;;;0.42;71.96;102042.81;4436350;32;8923;-74
2021/01/11 02:04:10;;;;;;;;;61.67;51.67;;;;;0.38;71.87;102041.59;4435181;32;9015;-74
2021/01/11 02:07:29;;;;;;;;;60.33;52.00;;;;;0.35;72.06;102046.69;4435180;32;8930;-74
2021/01/11 02:10:40;;;;;;;;;67.00;54.33;;;;;0.29;72.00;102043.00;4433679;32;8912;-74
2021/01/11 02:13:30;;;;;;;;;71.00;57.67;;;;;0.35;72.34;102054.88;4436185;32;8887;-75
2021/01/11 02:16:41;;;;;;;;;59.33;53.33;;;;;0.38;72.27;102038.88;4434340;32;8884;-75
2021/01/11 02:19:39;;;;;;;;;70.67;58.67;;;;;0.38;71.80;102033.44;4435555;32;9078;-74
2021/01/11 02:22:11;;;;;;;;;79.33;59.67;;;;;0.27;72.15;102045.94;4434337;32;8918;-74
2021/01/11 02:25:13;;;;;;;;;72.67;58.67;;;;;0.22;71.83;102044.97;4435143;32;8911;-73
2021/01/11 02:28:50;;;;;;;;;60.67;51.67;;;;;0.32;71.96;102047.16;4434395;32;8907;-74
2021/01/11 02:31:50;;;;;;;;;69.33;58.67;;;;;0.25;72.18;102045.34;4426519;32;8907;-74
2021/01/11 02:34:48;;;;;;;;;70.33;58.67;;;;;0.27;71.45;102031.50;4432383;32;8912;-74
2021/01/11 02:37:46;;;;;;;;;63.67;54.67;;;;;0.20;71.65;102025.31;4435062;32;8911;-74
2021/01/11 02:40:42;;;;;;;;;65.67;56.33;;;;;0.18;71.40;102024.72;4434447;32;8923;-75
2021/01/11 02:43:10;;;;;;;;;63.67;55.00;;;;;0.21;71.58;102037.88;4435249;32;9520;-74
2021/01/11 02:46:06;;;;;;;;;71.67;57.33;;;;;0.06;71.74;102037.44;4433669;32;8938;-74
2021/01/11 02:48:56;;;;;;;;;64.67;54.00;;;;;0.15;71.81;102049.66;4435276;32;8917;-74
2021/01/11 02:52:20;;;;;;;;;67.33;56.33;;;;;0.14;71.30;102040.66;4434225;32;8980;-74
2021/01/11 02:55:24;;;;;;;;;68.00;58.00;;;;;0.15;71.11;102042.31;4433605;32;8907;-75
2021/01/11 02:58:10;;;;;;;;;72.00;60.00;;;;;0.12;71.37;102056.41;4435293;32;8933;-75
2021/01/11 03:01:09;;;;;;;;;62.67;53.33;;;;;0.07;71.46;102050.81;4434918;32;9030;-75
2021/01/11 03:03:39;;;;;;;;;75.00;57.33;;;;;-0.04;71.67;102046.13;4434068;32;8921;-75
2021/01/11 03:06:34;;;;;;;;;62.33;54.67;;;;;-0.12;72.31;102041.84;4433874;32;8971;-75
2021/01/11 03:09:32;;;;;;;;;63.67;52.00;;;;;-0.14;72.29;102027.63;4433802;32;8977;-75
2021/01/11 03:12:27;;;;;;;;;67.67;58.00;;;;;-0.14;71.73;102027.63;4432458;32;9581;-75
2021/01/11 03:15:23;;;;;;;;;61.00;54.00;;;;;-0.07;71.60;102024.84;4434367;32;8903;-75
2021/01/11 03:17:50;;;;;;;;;65.00;49.25;;;;;-0.03;72.05;102028.75;4433603;32;8949;-74
2021/01/11 03:20:46;;;;;;;;;71.00;58.25;;;;;-0.01;72.15;102027.47;4433794;32;8884;-73
2021/01/11 03:23:14;;;;;;;;;74.50;60.00;;;;;-0.01;71.74;102032.06;4436005;32;8948;-74
2021/01/11 03:26:09;;;;;;;;;66.33;57.33;;;;;-0.06;71.65;102059.12;4435565;32;8907;-75
2021/01/11 03:29:08;;;;;;;;;69.00;57.67;;;;;-0.14;71.93;102057.56;4433043;32;8960;-74
2021/01/11 03:31:51;;;;;;;;;61.33;54.00;;;;;-0.02;72.04;102060.34;4435085;32;8879;-74
2021/01/11 03:34:22;;;;;;;;;65.67;55.33;;;;;-0.02;71.20;102054.91;4435400;32;8883;-75
2021/01/11 03:37:18;;;;;;;;;61.67;53.33;;;;;-0.08;70.93;102062.09;4434073;32;8938;-75
2021/01/11 03:39:46;;;;;;;;;71.33;57.00;;;;;-0.16;71.66;102073.25;4434551;32;8902;-74
2021/01/11 03:42:41;;;;;;;;;73.25;60.25;;;;;-0.14;71.22;102076.59;4433030;32;8954;-73
2021/01/11 03:45:37;;;;;;;;;70.50;60.00;;;;;-0.19;71.20;102087.31;4434009;32;8946;-74
2021/01/11 03:48:33;;;;;;;;;64.50;54.25;;;;;-0.16;71.05;102086.00;4433257;32;8924;-75
2021/01/11 03:51:28;;;;;;;;;76.00;62.75;;;;;-0.26;71.06;102099.31;4435917;32;9190;-75
2021/01/11 03:54:24;;;;;;;;;72.50;60.50;;;;;-0.50;71.67;102079.25;4433267;32;8914;-75
2021/01/11 03:57:19;;;;;;;;;67.50;57.50;;;;;-0.34;71.59;102092.25;4432747;32;8907;-75
2021/01/11 04:00:15;;;;;;;;;72.50;57.25;;;;;-0.37;71.67;102093.56;4432414;32;8903;-75
2021/01/11 04:03:11;;;;;;;;;81.50;65.50;;;;;-0.26;71.56;102093.88;4431677;32;8991;-75
2021/01/11 04:06:08;;;;;;;;;74.75;57.50;;;;;-0.41;71.73;102091.50;4433318;32;8935;-75
2021/01/11 04:08:38;;;;;;;;;77.25;62.50;;;;;-0.32;71.46;102085.53;4438157;32;8875;-75
2021/01/11 04:11:34;;;;;;;;;73.75;60.25;;;;;-0.41;72.83;102096.94;4436704;32;8964;-75
2021/01/11 04:14:29;;;;;;;;;67.50;56.50;;;;;-0.23;72.24;102082.53;4436018;32;9541;-76
2021/01/11 04:17:25;;;;;;;;;69.75;57.25;;;;;-0.33;72.14;102083.88;4438154;32;8899;-75
2021/01/11 04:20:21;;;;;;;;;73.00;62.00;;;;;-0.25;71.65;102087.37;4435194;32;8927;-75
2021/01/11 04:22:49;;;;;;;;;68.50;59.00;;;;;-0.28;71.87;102085.94;4437139;32;8976;-75
2021/01/11 04:25:45;;;;;;;;;78.50;62.50;;;;;-0.37;72.03;102076.41;4436600;32;8973;-74
2021/01/11 04:28:40;;;;;;;;;70.50;59.50;;;;;-0.34;72.14;102063.19;4437761;32;8943;-74
2021/01/11 04:31:36;;;;;;;;;78.75;64.25;;;;;-0.39;71.86;102049.44;4436619;32;8911;-74
2021/01/11 04:34:32;;;;;;;;;75.50;59.00;;;;;-0.35;71.52;102038.94;4437437;32;8907;-75
2021/01/11 04:37:27;;;;;;;;;73.00;57.50;;;;;-0.43;71.82;102028.38;4437244;32;8958;-75
2021/01/11 04:40:24;;;;;;;;;75.75;58.50;;;;;-0.39;71.67;102032.28;4434389;32;8988;-75
2021/01/11 04:43:20;;;;;;;;;71.75;57.50;;;;;-0.38;71.21;102050.28;4437352;32;8943;-75
2021/01/11 04:45:58;;;;;;;;;77.25;61.25;;;;;-0.42;71.68;102044.47;4436004;32;8960;-75
2021/01/11 04:48:53;;;;;;;;;74.75;61.00;;;;;-0.36;71.56;102045.44;4437572;32;9022;-74
2021/01/11 04:51:49;;;;;;;;;80.00;65.50;;;;;-0.31;71.64;102051.03;4436960;32;8934;-72
2021/01/11 04:54:21;;;;;;;;;73.25;57.75;;;;;-0.29;71.72;102062.53;4437419;32;8886;-73
2021/01/11 04:57:22;;;;;;;;;80.25;66.75;;;;;-0.30;71.41;102064.41;4436506;32;8934;-73
2021/01/11 05:00:22;;;;;;;;;85.00;67.25;;;;;-0.33;71.48;102078.44;4436911;32;8950;-74
2021/01/11 05:03:22;;;;;;;;;68.00;59.00;;;;;-0.45;72.41;102093.00;4422334;32;8929;-73
2021/01/11 05:05:50;;;;;;;;;81.25;65.50;;;;;-0.36;71.84;102086.22;4421673;32;8893;-73
2021/01/11 05:08:45;;;;;;;;;86.75;66.25;;;;;-0.26;71.62;102069.41;4419192;32;8998;-74
2021/01/11 05:11:41;;;;;;;;;82.00;66.00;;;;;-0.31;71.51;102053.75;4421622;32;8944;-73
2021/01/11 05:14:37;;;;;;;;;82.00;66.25;;;;;-0.24;71.51;102070.00;4421524;32;8925;-74
2021/01/11 05:17:41;;;;;;;;;90.50;71.50;;;;;-0.31;71.53;102065.47;4420100;32;8890;-74
2021/01/11 05:20:37;;;;;;;;;92.00;69.00;;;;;-0.28;71.35;102047.88;4420857;32;8894;-73
2021/01/11 05:23:18;;;;;;;;;107.00;83.25;;;;;-0.35;71.87;102044.38;4422010;32;8897;-74
2021/01/11 05:26:10;;;;;;;;;97.00;75.75;;;;;-0.29;72.19;102049.75;4420243;32;8889;-74
2021/01/11 05:29:18;;;;;;;;;98.75;75.00;;;;;-0.26;72.17;102066.69;4421451;32;8953;-74
2021/01/11 05:32:14;;;;;;;;;105.25;80.50;;;;;-0.20;72.05;102066.59;4426316;32;8879;-73
2021/01/11 05:35:10;;;;;;;;;105.50;82.00;;;;;-0.15;72.19;102064.06;4436574;32;8888;-74
2021/01/11 05:38:20;;;;;;;;;98.75;77.00;;;;;-0.10;72.04;102068.78;4434078;32;8888;-73
2021/01/11 05:41:18;;;;;;;;;102.50;78.00;;;;;-0.10;72.19;102076.94;4433097;32;8960;-73
2021/01/11 05:44:15;;;;;;;;;100.00;81.00;;;;;-0.01;72.25;102081.84;4435238;32;8887;-74
2021/01/11 05:46:44;;;;;;;;;109.00;78.75;;;;;0.08;71.97;102101.47;4435324;32;8925;-74
2021/01/11 05:49:14;;;;;;;;;110.50;87.50;;;;;-0.01;71.98;102100.91;4435622;26;9044;-68
2021/01/11 05:51:41;;;;;;;;;108.25;85.75;;;;;0.13;71.94;102092.59;4405141;32;8909;-68
2021/01/11 05:54:26;;;;;;;;;110.25;92.00;;;;;0.16;72.04;102086.72;4404902;32;8924;-68
2021/01/11 05:56:55;;;;;;;;;112.00;86.50;;;;;0.25;72.07;102077.19;4405876;32;8890;-68
2021/01/11 05:59:24;;;;;;;;;110.25;85.25;;;;;0.22;72.08;102085.78;4404685;32;8971;-68
2021/01/11 06:02:00;;;;;;;;;117.25;94.50;;;;;0.25;72.11;102080.72;4380297;32;8894;-68
2021/01/11 06:04:28;;;;;;;;;148.50;127.50;;;;;0.28;72.19;102072.09;4392266;32;8924;-68
2021/01/11 06:06:56;;;;;;;;;138.75;112.75;;;;;0.27;72.22;102072.34;4392029;32;8938;-68
2021/01/11 06:09:24;;;;;;;;;156.50;135.75;;;;;0.32;72.11;102082.56;4413105;27;8932;-73
2021/01/11 06:11:54;;;;;;;;;152.50;125.00;;;;;0.37;71.95;102085.41;4403338;32;9521;-73
2021/01/11 06:14:24;;;;;;;;;129.00;112.50;;;;;0.40;71.95;102101.28;4405305;32;8908;-74
2021/01/11 06:16:51;;;;;;;;;151.75;122.75;;;;;0.49;71.74;102103.47;4406319;32;8926;-74
2021/01/11 06:19:19;;;;;;;;;150.25;124.00;;;;;0.49;72.23;102113.53;4404940;32;8916;-75
2021/01/11 06:21:50;;;;;;;;;155.50;120.00;;;;;0.48;72.15;102118.13;4404726;32;8873;-74
2021/01/11 06:24:18;;;;;;;;;153.25;128.50;;;;;0.58;71.98;102111.31;4405498;32;8892;-74
2021/01/11 06:26:48;;;;;;;;;184.50;151.25;;;;;0.66;71.76;102121.87;4404441;32;8888;-74
2021/01/11 06:29:29;;;;;;;;;182.75;149.00;;;;;0.68;71.48;102115.13;4404093;32;8923;-74
2021/01/11 06:32:17;;;;;;;;;194.00;161.75;;;;;0.60;71.70;102107.28;4405023;32;9050;-74
2021/01/11 06:34:45;;;;;;;;;198.75;160.75;;;;;0.70;71.96;102109.47;4404004;32;8961;-73
2021/01/11 06:37:31;;;;;;;;;198.25;147.50;;;;;0.68;72.47;102114.31;4404361;32;8926;-72
2021/01/11 06:39:59;;;;;;;;;209.50;158.75;;;;;0.81;72.59;102117.69;4403614;32;8938;-74
2021/01/11 06:42:27;;;;;;;;;190.25;151.75;;;;;0.85;72.44;102120.78;4408929;32;8895;-72
2021/01/11 06:44:55;;;;;;;;;182.00;158.50;;;;;0.90;72.69;102120.09;4403799;32;8904;-72
2021/01/11 06:47:30;;;;;;;;;163.50;143.00;;;;;0.98;72.60;102119.75;4405385;32;8884;-72
2021/01/11 06:50:08;;;;;;;;;184.75;159.50;;;;;0.99;72.47;102114.06;4401910;32;8912;-73
2021/01/11 06:52:37;;;;;;;;;168.75;147.25;;;;;0.92;72.47;102107.03;4404479;32;8924;-73
2021/01/11 06:55:17;;;;;;;;;153.75;137.50;;;;;1.02;72.46;102108.16;4404091;32;8916;-73
2021/01/11 06:59:56;;;;;;;;;145.00;120.00;;;;;1.17;72.12;102117.81;5154480;27;1103718;-74
2021/01/11 07:02:25;;;;;;;;;149.25;128.50;;;;;1.24;72.28;102113.09;5165106;27;8880;-73
2021/01/11 07:04:54;;;;;;;;;115.00;103.75;;;;;1.26;71.97;102113.66;5158175;27;8857;-74
2021/01/11 07:07:24;;;;;;;;;135.50;114.25;;;;;1.31;71.96;102095.56;5173725;27;8837;-73
2021/01/11 07:09:57;;;;;;;;;147.00;114.50;;;;;1.37;72.94;102100.03;5173022;27;8809;-73
2021/01/11 07:12:26;;;;;;;;;119.00;105.00;;;;;1.60;71.30;102101.97;5172981;27;8871;-73
2021/01/11 07:15:17;;;;;;;;;132.00;109.00;;;;;1.56;72.24;102097.22;5154943;27;8901;-73
2021/01/11 07:17:48;;;;;;;;;115.75;101.75;;;;;1.56;72.11;102084.44;5154982;27;8889;-73
2021/01/11 07:20:38;;;;;;;;;114.00;97.00;;;;;1.64;72.07;102080.53;5154620;27;8833;-73
2021/01/11 07:23:06;;;;;;;;;124.75;109.25;;;;;1.77;71.71;102074.81;5140996;27;8855;-73
2021/01/11 07:25:34;;;;;;;;;129.50;107.25;;;;;1.81;71.50;102076.00;5154935;27;8847;-73
2021/01/11 07:28:03;;;;;;;;;126.00;106.50;;;;;1.84;71.14;102077.41;5154254;27;8873;-73
2021/01/11 07:30:35;;;;;;;;;125.75;106.75;;;;;1.84;71.23;102066.50;5154539;27;8837;-73
2021/01/11 07:33:12;;;;;;;;;134.25;110.75;;;;;1.86;71.69;102080.75;5171799;27;8864;-73
2021/01/11 07:35:51;;;;;;;;;123.00;108.50;;;;;1.86;72.02;102097.94;5156364;27;8871;-73
2021/01/11 07:38:19;;;;;;;;;132.75;112.50;;;;;2.00;72.55;102116.81;5154381;27;8829;-73
2021/01/11 07:40:58;;;;;;;;;156.50;123.00;;;;;2.01;72.77;102110.28;5154305;27;8821;-73
2021/01/11 07:43:25;;;;;;;;;143.25;130.50;;;;;1.79;73.02;102137.31;5172134;27;8829;-73
2021/01/11 07:46:04;;;;;;;;;156.50;128.00;;;;;1.86;72.83;102125.22;5172119;27;8842;-74
2021/01/11 07:48:31;;;;;;;;;139.75;119.50;;;;;1.98;72.84;102097.91;5172340;27;8829;-73
2021/01/11 07:51:08;;;;;;;;;151.75;136.00;;;;;2.09;71.87;102110.72;5171931;27;9571;-74
2021/01/11 07:53:37;;;;;;;;;130.25;110.25;;;;;2.15;72.04;102117.16;5153775;27;9633;-74
2021/01/11 07:56:09;;;;;;;;;151.75;129.00;;;;;2.25;72.03;102125.53;5171834;27;8821;-73
2021/01/11 07:58:37;;;;;;;;;141.25;116.00;;;;;2.33;72.25;102122.44;5172067;27;8867;-73
2021/01/11 08:01:08;;;;;;;;;163.50;134.00;;;;;2.39;72.06;102121.47;5171949;27;8829;-73
2021/01/11 08:03:39;;;;;;;;;149.75;126.00;;;;;2.44;72.02;102124.28;5153710;27;8879;-73
2021/01/11 08:06:07;;;;;;;;;152.00;129.75;;;;;2.31;72.20;102126.50;5153470;27;8856;-73
2021/01/11 08:08:36;;;;;;;;;159.25;134.25;;;;;2.33;71.98;102110.69;5153467;27;8935;-73
2021/01/11 08:11:05;;;;;;;;;170.50;147.75;;;;;2.43;72.12;102113.63;5158357;27;8951;-73
2021/01/11 08:13:32;;;;;;;;;171.00;132.75;;;;;2.34;71.97;102110.44;5158113;27;8817;-74
2021/01/11 08:16:14;;;;;;;;;180.00;151.00;;;;;2.38;72.57;102100.72;5139747;27;8821;-73
2021/01/11 08:18:42;;;;;;;;;187.75;147.00;;;;;2.59;71.47;102103.81;5157250;27;9534;-72
2021/01/11 08:21:11;;;;;;;;;197.25;160.75;;;;;2.59;71.55;102096.47;5157778;27;8821;-73
2021/01/11 08:23:38;;;;;;;;;204.50;159.50;;;;;2.67;71.70;102087.03;5139152;27;8845;-73
2021/01/11 08:26:09;;;;;;;;;203.00;176.75;;;;;2.64;72.27;102073.88;5157372;27;8912;-74
2021/01/11 08:28:38;;;;;;;;;206.50;181.50;;;;;2.76;72.79;102070.03;5157841;27;8859;-72
2021/01/11 08:31:05;;;;;;;;;229.25;193.75;;;;;2.81;72.84;102058.34;5157615;27;8844;-72
2021/01/11 08:33:36;;;;;;;;;261.50;227.00;;;;;2.83;73.13;102061.66;5139149;27;8837;-73
2021/01/11 08:36:23;;;;;;;;;295.50;239.50;;;;;3.01;72.24;102057.91;5139203;27;8817;-72
2021/01/11 08:39:16;;;;;;;;;301.50;231.75;;;;;3.05;72.00;102051.69;5138823;27;8932;-74
2021/01/11 08:41:53;;;;;;;;;268.75;221.75;;;;;3.01;72.42;102052.44;5157575;27;8849;-74
2021/01/11 08:44:24;;;;;;;;;263.50;211.25;;;;;3.17;71.99;102050.78;5154671;27;9713;-74
2021/01/11 08:46:52;;;;;;;;;246.00;203.75;;;;;3.15;72.16;102055.69;5157731;27;8821;-74
2021/01/11 08:49:21;;;;;;;;;258.25;209.00;;;;;3.10;71.99;102061.88;5157172;27;8836;-73
2021/01/11 08:51:49;;;;;;;;;284.50;227.25;;;;;3.15;71.83;102061.97;5157145;27;8908;-72
2021/01/11 08:54:31;;;;;;;;;250.50;215.50;;;;;3.11;72.52;102057.25;5139140;27;8887;-73
2021/01/11 08:57:09;;;;;;;;;267.75;212.00;;;;;2.89;72.51;102059.84;5157595;27;8833;-73
2021/01/11 08:59:47;;;;;;;;;261.25;214.25;;;;;2.78;73.62;102053.41;5156737;27;8855;-74
2021/01/11 09:02:23;;;;;;;;;283.50;220.25;;;;;2.72;73.91;102062.56;5156879;27;8841;-73
2021/01/11 09:04:51;;;;;;;;;294.00;228.50;;;;;2.75;74.06;102067.53;5138529;27;8833;-72
2021/01/11 09:07:31;;;;;;;;;301.25;239.75;;;;;2.90;73.22;102061.53;5157220;27;8829;-73
2021/01/11 09:09:59;;;;;;;;;304.00;240.75;;;;;2.84;73.24;102068.81;5156881;27;8841;-73
2021/01/11 09:12:33;;;;;;;;;309.75;249.00;;;;;2.92;73.02;102062.94;5156793;27;8825;-73
2021/01/11 09:15:03;;;;;;;;;335.50;270.25;;;;;3.04;72.46;102071.06;5156737;27;8829;-72
2021/01/11 09:17:32;;;;;;;;;338.00;243.75;;;;;2.97;72.66;102062.19;5138532;27;9017;-73
2021/01/11 09:20:06;;;;;;;;;322.50;252.75;;;;;3.12;72.17;102067.09;5156055;27;8864;-72
2021/01/11 09:22:40;;;;;;;;;338.50;268.50;;;;;3.23;71.42;102067.03;5155639;27;8921;-72
2021/01/11 09:25:11;;;;;;;;;230.25;199.00;;;;;3.26;71.31;102068.44;5156385;27;8833;-72
2021/01/11 09:27:41;;;;;;;;;228.75;196.50;;;;;3.14;71.05;102073.13;5156202;27;8853;-72
2021/01/11 09:30:10;;;;;;;;;288.75;232.75;;;;;2.92;72.16;102076.63;5138242;27;8835;-73
2021/01/11 09:32:38;;;;;;;;;318.50;248.75;;;;;2.81;72.69;102069.28;5156402;27;8837;-74
2021/01/11 09:35:06;;;;;;;;;277.00;221.50;;;;;2.87;73.13;102059.28;5156293;27;8852;-74
2021/01/11 09:37:34;;;;;;;;;287.75;232.00;;;;;3.02;72.67;102070.50;5138043;27;8848;-74
2021/01/11 09:40:03;;;;;;;;;275.00;229.25;;;;;3.12;71.99;102062.44;5155940;27;8844;-74
2021/01/11 09:42:30;;;;;;;;;232.75;191.00;;;;;3.18;72.42;102061.47;5156267;27;8840;-74
2021/01/11 09:44:58;;;;;;;;;212.50;184.00;;;;;3.37;71.63;102053.00;5137882;27;9569;-72
2021/01/11 09:47:26;;;;;;;;;205.75;171.25;;;;;3.32;71.66;102048.31;5137725;27;8821;-73
2021/01/11 09:49:54;;;;;;;;;180.50;152.75;;;;;3.36;71.71;102049.44;5138246;27;8861;-73
2021/01/11 09:52:22;;;;;;;;;148.75;126.25;;;;;3.38;71.46;102044.56;5138353;27;8837;-73
2021/01/11 09:54:57;;;;;;;;;218.00;182.50;;;;;3.43;71.43;102033.69;5121203;27;8861;-73
2021/01/11 09:57:25;;;;;;;;;227.00;191.75;;;;;3.61;71.24;102025.22;5137692;27;8825;-74
2021/01/11 09:59:52;;;;;;;;;226.50;179.75;;;;;3.55;70.69;102023.50;5133328;27;8912;-75
2021/01/11 10:02:19;;;;;;;;;157.75;144.50;;;;;3.59;70.54;102019.16;5134972;27;8874;-73
2021/01/11 10:04:48;;;;;;;;;147.50;122.00;;;;;3.74;70.19;102015.81;5133547;27;8837;-72
2021/01/11 10:07:15;;;;;;;;;135.00;122.00;;;;;3.63;70.12;102020.31;5135055;27;8867;-72
2021/01/11 10:09:43;;;;;;;;;112.50;89.75;;;;;3.61;69.84;102011.53;5135502;27;8848;-73
2021/01/11 10:12:12;;;;;;;;;114.50;100.25;;;;;3.72;69.84;102007.03;5135517;27;8828;-74
2021/01/11 10:14:39;;;;;;;;;113.25;104.00;;;;;3.74;70.33;102010.34;5133875;27;8824;-75
2021/01/11 10:17:11;;;;;;;;;115.50;101.25;;;;;3.82;70.00;102009.06;5117863;27;8840;-74
2021/01/11 10:19:40;;;;;;;;;104.00;84.25;;;;;3.94;69.87;102003.50;5116905;27;8852;-74
2021/01/11 10:22:08;;;;;;;;;158.00;124.25;;;;;3.99;69.67;102004.38;5133994;27;9002;-73
2021/01/11 10:24:36;;;;;;;;;123.25;98.25;;;;;3.95;69.35;102014.19;5135088;27;8832;-74
2021/01/11 10:27:04;;;;;;;;;112.25;94.50;;;;;3.86;70.08;102016.53;5135039;27;8852;-74
2021/01/11 10:29:32;;;;;;;;;104.25;86.75;;;;;3.83;70.12;102014.31;5134835;27;9040;-74
2021/01/11 10:32:03;;;;;;;;;156.75;132.25;;;;;3.96;70.35;102017.75;5134266;27;8890;-74
2021/01/11 10:34:32;;;;;;;;;133.50;115.75;;;;;3.95;70.31;102008.69;5137212;27;8840;-74
2021/01/11 10:36:59;;;;;;;;;110.50;97.75;;;;;3.94;70.22;102018.00;5142310;27;8836;-74
2021/01/11 10:39:26;;;;;;;;;128.00;111.00;;;;;4.02;69.92;102023.03;5142288;27;8936;-75
2021/01/11 10:41:56;;;;;;;;;144.50;121.75;;;;;3.98;70.08;102018.31;5140810;27;8824;-74
2021/01/11 10:44:25;;;;;;;;;127.50;112.00;;;;;3.89;70.02;102018.75;5134705;27;8892;-73
2021/01/11 10:46:56;;;;;;;;;134.25;116.50;;;;;3.80;71.10;102025.75;5133563;27;9601;-73
2021/01/11 10:49:26;;;;;;;;;152.25;127.75;;;;;3.86;70.68;102043.06;5134200;27;8852;-73
2021/01/11 10:51:57;;;;;;;;;149.25;120.00;;;;;3.77;70.78;102037.22;5134378;27;8851;-73
2021/01/11 10:54:26;;;;;;;;;127.50;109.75;;;;;3.74;70.71;102042.34;5129790;27;8887;-73
2021/01/11 10:56:54;;;;;;;;;138.25;114.00;;;;;3.74;70.93;102036.88;5112487;28;9645;-74
2021/01/11 10:59:50;;;;;;;;;121.75;100.00;;;;;3.67;71.49;102037.06;5119634;28;8838;-74
2021/01/11 11:02:47;;;;;;;;;106.50;82.50;;;;;3.61;70.88;102038.91;5113870;28;8858;-74
2021/01/11 11:05:17;;;;;;;;;103.25;83.50;;;;;3.52;71.74;102043.13;5105780;28;8955;-72
2021/01/11 11:07:59;;;;;;;;;114.00;94.50;;;;;3.38;71.84;102052.78;5112958;28;8859;-73
2021/01/11 11:10:55;;;;;;;;;111.25;91.25;;;;;3.35;71.84;102061.47;5112957;28;8862;-73
2021/01/11 11:13:22;;;;;;;;;107.25;83.75;;;;;3.27;72.16;102040.00;5119418;27;8914;-72
2021/01/11 11:16:18;;;;;;;;;109.50;85.25;;;;;3.12;72.69;102029.66;5119652;27;8839;-75
2021/01/11 11:19:14;;;;;;;;;106.75;81.25;;;;;3.26;72.37;102043.81;5133237;27;8808;-74
2021/01/11 11:21:55;;;;;;;;;112.00;93.75;;;;;3.32;73.27;102042.84;5121830;27;8888;-74
2021/01/11 11:24:51;;;;;;;;;101.25;77.25;;;;;3.42;72.13;102051.19;5099901;28;8849;-74
2021/01/11 11:27:50;;;;;;;;;95.25;72.75;;;;;3.57;71.94;102062.34;5114549;27;8861;-74
2021/01/11 11:30:45;;;;;;;;;93.33;73.00;;;;;3.47;72.10;102055.91;5133638;27;8859;-74
2021/01/11 11:33:27;;;;;;;;;87.00;69.67;;;;;3.37;71.88;102053.00;5132155;27;8828;-74
2021/01/11 11:36:12;;;;;;;;;74.00;60.67;;;;;3.47;71.04;102062.22;5130928;27;8828;-74
2021/01/11 11:38:40;;;;;;;;;75.67;63.33;;;;;3.51;70.20;102065.25;5126738;27;8842;-74
2021/01/11 11:41:36;;;;;;;;;65.67;53.00;;;;;3.49;70.64;102057.31;5111876;27;8819;-73
2021/01/11 11:44:05;;;;;;;;;74.67;57.00;;;;;3.54;69.80;102059.31;5131975;27;8864;-74
2021/01/11 11:46:42;;;;;;;;;86.67;66.33;;;;;3.49;70.61;102062.78;5130002;27;8852;-74
2021/01/11 11:49:38;;;;;;;;;78.00;62.67;;;;;3.51;69.94;102074.28;5118967;27;8839;-74
2021/01/11 11:52:34;;;;;;;;;80.00;59.33;;;;;3.56;69.79;102076.28;5134690;27;8840;-75
2021/01/11 11:55:30;;;;;;;;;71.67;58.67;;;;;3.74;70.45;102081.47;5136631;27;9536;-76
2021/01/11 11:58:12;;;;;;;;;75.00;55.33;;;;;3.81;69.91;102090.34;5132174;27;8831;-76
2021/01/11 12:01:07;;;;;;;;;63.67;51.33;;;;;3.83;69.58;102099.16;5136251;27;8831;-75
2021/01/11 12:04:03;;;;;;;;;81.00;61.67;;;;;3.71;69.12;102101.16;5136670;27;8815;-75
2021/01/11 12:07:01;;;;;;;;;80.67;63.33;;;;;3.09;70.70;102100.41;5154194;27;8821;-75
2021/01/11 12:09:56;;;;;;;;;84.33;63.00;;;;;3.70;69.33;102094.03;5143011;27;8844;-74
2021/01/11 12:12:52;;;;;;;;;78.67;60.67;;;;;3.67;69.38;102094.50;5156955;27;8877;-75
2021/01/11 12:15:47;;;;;;;;;78.67;59.67;;;;;3.69;68.80;102102.50;5139707;27;8889;-75
2021/01/11 12:18:43;;;;;;;;;68.33;57.33;;;;;3.51;69.06;102109.84;5122210;27;8827;-75
2021/01/11 12:21:39;;;;;;;;;75.00;61.67;;;;;3.55;69.25;102104.75;5145177;27;8820;-75
2021/01/11 12:24:34;;;;;;;;;75.00;60.33;;;;;3.68;68.89;102109.03;5135979;27;8851;-74
2021/01/11 12:27:33;;;;;;;;;65.33;51.67;;;;;3.67;68.45;102105.47;5133737;27;8815;-75
2021/01/11 12:30:29;;;;;;;;;65.33;49.00;;;;;3.44;68.68;102103.72;5137724;27;9025;-74